sensor_id;sensor_type;location;lat;lon;timestamp;P1;durP1;ratioP1;P2;durP2;ratioP2
10134;SDS011;5107;48.850;8.924;2023-12-07T06:48:24;8.47;;;6.40;;
10134;SDS011;5107;48.850;8.924;2023-12-07T06:50:50;9.73;;;6.53;;
10134;SDS011;5107;48.850;8.924;2023-12-07T06:53:15;9.73;;;6.37;;
10134;SDS011;5107;48.850;8.924;2023-12-07T06:55:43;9.00;;;6.40;;
10134;SDS011;5107;48.850;8.924;2023-12-07T06:58:08;9.00;;;6.30;;
10134;SDS011;5107;48.850;8.924;2023-12-07T07:00:34;8.60;;;6.37;;
10134;SDS011;5107;48.850;8.924;2023-12-07T07:03:01;7.87;;;5.93;;
10134;SDS011;5107;48.850;8.924;2023-12-07T07:05:26;10.60;;;6.50;;
10134;SDS011;5107;48.850;8.924;2023-12-07T07:07:52;9.50;;;6.13;;
10134;SDS011;5107;48.850;8.924;2023-12-07T07:10:17;17.57;;;10.30;;
10134;SDS011;5107;48.850;8.924;2023-12-07T07:12:42;12.43;;;8.07;;
10134;SDS011;5107;48.850;8.924;2023-12-07T07:15:08;16.27;;;9.77;;
10134;SDS011;5107;48.850;8.924;2023-12-07T07:17:34;19.93;;;11.40;;
10134;SDS011;5107;48.850;8.924;2023-12-07T07:19:59;10.20;;;7.20;;
10134;SDS011;5107;48.850;8.924;2023-12-07T07:22:25;11.63;;;6.90;;
10134;SDS011;5107;48.850;8.924;2023-12-07T07:24:50;9.47;;;6.80;;
10134;SDS011;5107;48.850;8.924;2023-12-07T07:27:15;8.43;;;5.90;;
10134;SDS011;5107;48.850;8.924;2023-12-07T07:29:41;8.80;;;6.30;;
10134;SDS011;5107;48.850;8.924;2023-12-07T07:32:06;10.20;;;6.20;;
10134;SDS011;5107;48.850;8.924;2023-12-07T07:34:31;9.80;;;5.77;;
10134;SDS011;5107;48.850;8.924;2023-12-07T07:36:57;9.50;;;6.47;;
10134;SDS011;5107;48.850;8.924;2023-12-07T07:39:22;8.30;;;6.23;;
10134;SDS011;5107;48.850;8.924;2023-12-07T07:41:48;8.17;;;5.67;;
10134;SDS011;5107;48.850;8.924;2023-12-07T07:44:13;9.53;;;5.80;;
10134;SDS011;5107;48.850;8.924;2023-12-07T07:46:40;8.67;;;5.77;;
10134;SDS011;5107;48.850;8.924;2023-12-07T07:49:06;8.80;;;6.13;;
10134;SDS011;5107;48.850;8.924;2023-12-07T07:51:31;9.10;;;6.37;;
10134;SDS011;5107;48.850;8.924;2023-12-07T07:53:58;9.10;;;6.83;;
10134;SDS011;5107;48.850;8.924;2023-12-07T07:56:24;7.57;;;5.97;;
10134;SDS011;5107;48.850;8.924;2023-12-07T07:58:49;7.90;;;6.00;;
10134;SDS011;5107;48.850;8.924;2023-12-07T08:01:15;9.60;;;5.60;;
10134;SDS011;5107;48.850;8.924;2023-12-07T08:03:40;8.27;;;6.20;;
10134;SDS011;5107;48.850;8.924;2023-12-07T08:06:06;9.40;;;6.77;;
10134;SDS011;5107;48.850;8.924;2023-12-07T08:08:32;8.10;;;5.60;;
10134;SDS011;5107;48.850;8.924;2023-12-07T08:10:57;7.53;;;5.47;;
10134;SDS011;5107;48.850;8.924;2023-12-07T08:13:22;8.40;;;5.97;;
10134;SDS011;5107;48.850;8.924;2023-12-07T08:15:48;7.47;;;5.47;;
10134;SDS011;5107;48.850;8.924;2023-12-07T08:18:13;10.00;;;6.87;;
10134;SDS011;5107;48.850;8.924;2023-12-07T08:20:39;8.20;;;5.63;;
10134;SDS011;5107;48.850;8.924;2023-12-07T08:23:04;8.10;;;6.10;;
10134;SDS011;5107;48.850;8.924;2023-12-07T08:25:30;11.93;;;8.13;;
10134;SDS011;5107;48.850;8.924;2023-12-07T08:27:57;7.57;;;5.90;;
10134;SDS011;5107;48.850;8.924;2023-12-07T08:30:22;8.13;;;5.87;;
10134;SDS011;5107;48.850;8.924;2023-12-07T08:32:48;7.20;;;5.70;;
10134;SDS011;5107;48.850;8.924;2023-12-07T08:35:13;7.73;;;6.07;;
10134;SDS011;5107;48.850;8.924;2023-12-07T08:37:38;12.77;;;6.70;;
10134;SDS011;5107;48.850;8.924;2023-12-07T08:40:04;8.27;;;6.30;;
10134;SDS011;5107;48.850;8.924;2023-12-07T08:42:30;9.87;;;7.53;;
10134;SDS011;5107;48.850;8.924;2023-12-07T08:44:57;9.23;;;7.10;;
10134;SDS011;5107;48.850;8.924;2023-12-07T08:47:22;10.93;;;8.23;;
10134;SDS011;5107;48.850;8.924;2023-12-07T08:49:47;8.13;;;6.37;;
10134;SDS011;5107;48.850;8.924;2023-12-07T08:52:13;9.80;;;6.10;;
10134;SDS011;5107;48.850;8.924;2023-12-07T08:54:38;9.53;;;6.30;;
10134;SDS011;5107;48.850;8.924;2023-12-07T08:57:04;7.57;;;5.87;;
10134;SDS011;5107;48.850;8.924;2023-12-07T08:59:29;7.40;;;6.03;;
10134;SDS011;5107;48.850;8.924;2023-12-07T09:01:55;10.17;;;6.17;;
10134;SDS011;5107;48.850;8.924;2023-12-07T09:04:21;6.63;;;5.30;;
10134;SDS011;5107;48.850;8.924;2023-12-07T09:06:46;6.30;;;4.70;;
10134;SDS011;5107;48.850;8.924;2023-12-07T09:09:11;7.27;;;5.13;;
10134;SDS011;5107;48.850;8.924;2023-12-07T09:11:37;5.83;;;4.67;;
10134;SDS011;5107;48.850;8.924;2023-12-07T09:14:02;5.87;;;4.40;;
10134;SDS011;5107;48.850;8.924;2023-12-07T09:16:27;8.73;;;6.20;;
10134;SDS011;5107;48.850;8.924;2023-12-07T09:18:53;7.63;;;5.90;;
10134;SDS011;5107;48.850;8.924;2023-12-07T09:21:18;8.57;;;6.23;;
10134;SDS011;5107;48.850;8.924;2023-12-07T09:23:44;6.13;;;5.37;;
10134;SDS011;5107;48.850;8.924;2023-12-07T09:26:09;10.10;;;6.23;;
10134;SDS011;5107;48.850;8.924;2023-12-07T09:28:35;8.13;;;5.93;;
10134;SDS011;5107;48.850;8.924;2023-12-07T09:31:00;8.37;;;5.73;;
10134;SDS011;5107;48.850;8.924;2023-12-07T09:33:26;8.33;;;6.27;;
10134;SDS011;5107;48.850;8.924;2023-12-07T09:35:51;7.03;;;5.90;;
10134;SDS011;5107;48.850;8.924;2023-12-07T09:38:17;7.93;;;5.97;;
10134;SDS011;5107;48.850;8.924;2023-12-07T09:40:42;6.40;;;5.23;;
10134;SDS011;5107;48.850;8.924;2023-12-07T09:43:08;6.77;;;5.40;;
10134;SDS011;5107;48.850;8.924;2023-12-07T09:45:34;7.33;;;5.60;;
10134;SDS011;5107;48.850;8.924;2023-12-07T09:47:59;7.20;;;5.50;;
10134;SDS011;5107;48.850;8.924;2023-12-07T09:50:26;6.37;;;5.10;;
10134;SDS011;5107;48.850;8.924;2023-12-07T09:52:53;8.33;;;5.13;;
10134;SDS011;5107;48.850;8.924;2023-12-07T09:55:21;5.87;;;4.73;;
10134;SDS011;5107;48.850;8.924;2023-12-07T09:57:47;5.27;;;4.03;;
10134;SDS011;5107;48.850;8.924;2023-12-07T10:00:13;8.93;;;4.90;;
10134;SDS011;5107;48.850;8.924;2023-12-07T10:02:40;6.73;;;4.10;;
10134;SDS011;5107;48.850;8.924;2023-12-07T10:05:07;5.57;;;4.50;;
10134;SDS011;5107;48.850;8.924;2023-12-07T10:07:36;7.23;;;4.77;;
10134;SDS011;5107;48.850;8.924;2023-12-07T10:10:05;6.53;;;5.03;;
10134;SDS011;5107;48.850;8.924;2023-12-07T10:12:31;6.70;;;5.00;;
10134;SDS011;5107;48.850;8.924;2023-12-07T10:14:59;7.67;;;4.73;;
10134;SDS011;5107;48.850;8.924;2023-12-07T10:18:13;7.23;;;5.10;;
10134;SDS011;5107;48.850;8.924;2023-12-07T10:20:27;6.70;;;4.67;;
10134;SDS011;5107;48.850;8.924;2023-12-07T10:25:30;7.53;;;4.70;;
10134;SDS011;5107;48.850;8.924;2023-12-07T10:27:56;7.70;;;4.60;;
10134;SDS011;5107;48.850;8.924;2023-12-07T10:30:22;5.60;;;4.57;;
10134;SDS011;5107;48.850;8.924;2023-12-07T10:32:51;5.87;;;4.40;;
10134;SDS011;5107;48.850;8.924;2023-12-07T10:35:18;6.30;;;4.30;;
10134;SDS011;5107;48.850;8.924;2023-12-07T10:37:44;8.43;;;4.37;;
10134;SDS011;5107;48.850;8.924;2023-12-07T10:40:09;6.83;;;4.97;;
10134;SDS011;5107;48.850;8.924;2023-12-07T10:42:35;5.83;;;4.77;;
10134;SDS011;5107;48.850;8.924;2023-12-07T10:45:05;8.30;;;5.10;;
10134;SDS011;5107;48.850;8.924;2023-12-07T10:47:35;8.50;;;5.30;;
10134;SDS011;5107;48.850;8.924;2023-12-07T10:50:02;7.80;;;5.63;;
10134;SDS011;5107;48.850;8.924;2023-12-07T10:52:32;6.13;;;5.03;;
10134;SDS011;5107;48.850;8.924;2023-12-07T10:55:03;7.43;;;5.40;;
10134;SDS011;5107;48.850;8.924;2023-12-07T10:57:36;6.10;;;4.93;;
10134;SDS011;5107;48.850;8.924;2023-12-07T11:00:02;6.07;;;5.10;;
10134;SDS011;5107;48.850;8.924;2023-12-07T11:02:29;8.20;;;5.47;;
10134;SDS011;5107;48.850;8.924;2023-12-07T11:04:57;7.20;;;4.87;;
10134;SDS011;5107;48.850;8.924;2023-12-07T11:07:25;7.43;;;5.20;;
10134;SDS011;5107;48.850;8.924;2023-12-07T11:10:03;6.50;;;4.63;;
10134;SDS011;5107;48.850;8.924;2023-12-07T11:12:47;9.63;;;5.37;;
10134;SDS011;5107;48.850;8.924;2023-12-07T11:15:18;7.13;;;4.90;;
10134;SDS011;5107;48.850;8.924;2023-12-07T11:17:50;5.43;;;4.53;;
10134;SDS011;5107;48.850;8.924;2023-12-07T11:23:07;6.13;;;4.80;;
10134;SDS011;5107;48.850;8.924;2023-12-07T11:25:33;6.53;;;4.70;;
10134;SDS011;5107;48.850;8.924;2023-12-07T11:28:02;5.87;;;4.97;;
10134;SDS011;5107;48.850;8.924;2023-12-07T11:30:30;8.10;;;5.43;;
10134;SDS011;5107;48.850;8.924;2023-12-07T11:32:57;8.57;;;5.83;;
10134;SDS011;5107;48.850;8.924;2023-12-07T11:35:22;8.33;;;5.80;;
10134;SDS011;5107;48.850;8.924;2023-12-07T11:38:04;15.13;;;11.87;;
10134;SDS011;5107;48.850;8.924;2023-12-07T11:40:32;13.20;;;8.47;;
10134;SDS011;5107;48.850;8.924;2023-12-07T11:43:02;9.37;;;7.00;;
10134;SDS011;5107;48.850;8.924;2023-12-07T11:45:36;7.07;;;5.50;;
10134;SDS011;5107;48.850;8.924;2023-12-07T11:48:06;8.03;;;5.93;;
10134;SDS011;5107;48.850;8.924;2023-12-07T11:50:32;8.63;;;5.30;;
10134;SDS011;5107;48.850;8.924;2023-12-07T11:52:58;6.97;;;5.60;;
10134;SDS011;5107;48.850;8.924;2023-12-07T11:55:24;8.40;;;5.47;;
10134;SDS011;5107;48.850;8.924;2023-12-07T11:57:49;10.87;;;6.07;;
10134;SDS011;5107;48.850;8.924;2023-12-07T12:00:15;10.20;;;5.53;;
10134;SDS011;5107;48.850;8.924;2023-12-07T12:02:41;8.47;;;5.30;;
10134;SDS011;5107;48.850;8.924;2023-12-07T12:05:07;10.67;;;5.20;;
10134;SDS011;5107;48.850;8.924;2023-12-07T12:07:34;5.17;;;4.50;;
10134;SDS011;5107;48.850;8.924;2023-12-07T12:10:02;6.80;;;5.53;;
10134;SDS011;5107;48.850;8.924;2023-12-07T12:12:29;6.50;;;5.30;;
10134;SDS011;5107;48.850;8.924;2023-12-07T12:14:57;4.33;;;3.70;;
10134;SDS011;5107;48.850;8.924;2023-12-07T12:17:22;4.17;;;2.50;;
10134;SDS011;5107;48.850;8.924;2023-12-07T12:19:49;3.07;;;2.50;;
10134;SDS011;5107;48.850;8.924;2023-12-07T12:22:19;3.67;;;2.93;;
10134;SDS011;5107;48.850;8.924;2023-12-07T12:24:47;2.93;;;2.33;;
10134;SDS011;5107;48.850;8.924;2023-12-07T12:27:13;2.93;;;2.17;;
10134;SDS011;5107;48.850;8.924;2023-12-07T12:29:41;3.30;;;2.30;;
10134;SDS011;5107;48.850;8.924;2023-12-07T12:32:08;2.27;;;2.03;;
10134;SDS011;5107;48.850;8.924;2023-12-07T12:34:33;3.37;;;2.03;;
10134;SDS011;5107;48.850;8.924;2023-12-07T12:36:59;4.30;;;2.57;;
10134;SDS011;5107;48.850;8.924;2023-12-07T12:39:28;2.83;;;2.23;;
10134;SDS011;5107;48.850;8.924;2023-12-07T12:41:55;3.87;;;2.27;;
10134;SDS011;5107;48.850;8.924;2023-12-07T12:44:21;3.30;;;2.57;;
10134;SDS011;5107;48.850;8.924;2023-12-07T12:46:46;2.57;;;2.20;;
10134;SDS011;5107;48.850;8.924;2023-12-07T12:49:12;3.77;;;2.47;;
10134;SDS011;5107;48.850;8.924;2023-12-07T12:51:37;2.87;;;2.50;;
10134;SDS011;5107;48.850;8.924;2023-12-07T12:54:03;4.40;;;2.40;;
10134;SDS011;5107;48.850;8.924;2023-12-07T12:56:30;2.40;;;2.20;;
10134;SDS011;5107;48.850;8.924;2023-12-07T12:58:57;2.43;;;2.23;;
10134;SDS011;5107;48.850;8.924;2023-12-07T13:01:22;3.27;;;2.30;;
10134;SDS011;5107;48.850;8.924;2023-12-07T13:03:48;3.93;;;2.50;;
10134;SDS011;5107;48.850;8.924;2023-12-07T13:06:14;4.07;;;2.10;;
10134;SDS011;5107;48.850;8.924;2023-12-07T13:08:43;4.47;;;2.87;;
10134;SDS011;5107;48.850;8.924;2023-12-07T13:11:14;3.90;;;2.47;;
10134;SDS011;5107;48.850;8.924;2023-12-07T13:13:43;2.73;;;2.33;;
10134;SDS011;5107;48.850;8.924;2023-12-07T13:16:09;3.03;;;2.40;;
10134;SDS011;5107;48.850;8.924;2023-12-07T13:18:37;2.53;;;2.03;;
10134;SDS011;5107;48.850;8.924;2023-12-07T13:21:02;2.50;;;2.20;;
10134;SDS011;5107;48.850;8.924;2023-12-07T13:23:28;3.57;;;2.40;;
10134;SDS011;5107;48.850;8.924;2023-12-07T13:25:53;3.30;;;2.60;;
10134;SDS011;5107;48.850;8.924;2023-12-07T13:28:19;2.93;;;2.23;;
10134;SDS011;5107;48.850;8.924;2023-12-07T13:30:45;2.33;;;2.13;;
10134;SDS011;5107;48.850;8.924;2023-12-07T13:33:10;2.43;;;2.13;;
10134;SDS011;5107;48.850;8.924;2023-12-07T13:35:36;3.00;;;2.13;;
10134;SDS011;5107;48.850;8.924;2023-12-07T13:38:01;2.03;;;1.83;;
10134;SDS011;5107;48.850;8.924;2023-12-07T13:40:26;4.17;;;2.73;;
10134;SDS011;5107;48.850;8.924;2023-12-07T13:42:52;2.63;;;2.43;;
10134;SDS011;5107;48.850;8.924;2023-12-07T13:45:17;5.57;;;2.40;;
10134;SDS011;5107;48.850;8.924;2023-12-07T13:47:43;4.50;;;3.10;;
10134;SDS011;5107;48.850;8.924;2023-12-07T13:50:09;2.73;;;2.43;;
10134;SDS011;5107;48.850;8.924;2023-12-07T13:52:36;3.57;;;2.93;;
10134;SDS011;5107;48.850;8.924;2023-12-07T13:55:02;4.37;;;2.73;;
10134;SDS011;5107;48.850;8.924;2023-12-07T13:57:27;3.93;;;2.70;;
10134;SDS011;5107;48.850;8.924;2023-12-07T13:59:53;4.27;;;3.00;;
10134;SDS011;5107;48.850;8.924;2023-12-07T14:02:19;5.17;;;2.93;;
10134;SDS011;5107;48.850;8.924;2023-12-07T14:04:45;3.63;;;2.80;;
10134;SDS011;5107;48.850;8.924;2023-12-07T14:07:15;6.17;;;3.03;;
10134;SDS011;5107;48.850;8.924;2023-12-07T14:09:42;4.30;;;2.93;;
10134;SDS011;5107;48.850;8.924;2023-12-07T14:12:09;7.17;;;3.20;;
10134;SDS011;5107;48.850;8.924;2023-12-07T14:14:38;4.23;;;3.27;;
10134;SDS011;5107;48.850;8.924;2023-12-07T14:17:04;5.80;;;3.43;;
10134;SDS011;5107;48.850;8.924;2023-12-07T14:19:29;3.80;;;2.90;;
10134;SDS011;5107;48.850;8.924;2023-12-07T14:21:55;4.20;;;3.00;;
10134;SDS011;5107;48.850;8.924;2023-12-07T14:24:21;5.23;;;3.30;;
10134;SDS011;5107;48.850;8.924;2023-12-07T14:26:47;4.87;;;3.53;;
10134;SDS011;5107;48.850;8.924;2023-12-07T14:29:13;7.03;;;3.93;;
10134;SDS011;5107;48.850;8.924;2023-12-07T14:31:41;6.47;;;3.60;;
10134;SDS011;5107;48.850;8.924;2023-12-07T14:34:09;5.57;;;3.73;;
10134;SDS011;5107;48.850;8.924;2023-12-07T14:36:35;5.37;;;3.67;;
10134;SDS011;5107;48.850;8.924;2023-12-07T14:39:01;6.47;;;5.20;;
10134;SDS011;5107;48.850;8.924;2023-12-07T14:41:29;5.57;;;4.63;;
10134;SDS011;5107;48.850;8.924;2023-12-07T14:43:55;7.30;;;4.63;;
10134;SDS011;5107;48.850;8.924;2023-12-07T14:46:21;4.73;;;3.80;;
10134;SDS011;5107;48.850;8.924;2023-12-07T14:48:46;7.83;;;4.50;;
10134;SDS011;5107;48.850;8.924;2023-12-07T14:51:15;7.87;;;5.10;;
10134;SDS011;5107;48.850;8.924;2023-12-07T14:53:43;12.67;;;6.37;;
10134;SDS011;5107;48.850;8.924;2023-12-07T14:56:08;14.80;;;8.40;;
10134;SDS011;5107;48.850;8.924;2023-12-07T14:58:34;11.63;;;7.27;;
10134;SDS011;5107;48.850;8.924;2023-12-07T15:01:00;5.87;;;4.43;;
10134;SDS011;5107;48.850;8.924;2023-12-07T15:03:27;6.73;;;4.60;;
10134;SDS011;5107;48.850;8.924;2023-12-07T15:05:53;4.13;;;3.67;;
10134;SDS011;5107;48.850;8.924;2023-12-07T15:08:18;4.53;;;3.53;;
10134;SDS011;5107;48.850;8.924;2023-12-07T15:10:43;4.77;;;4.00;;
10134;SDS011;5107;48.850;8.924;2023-12-07T15:13:09;6.53;;;4.30;;
10134;SDS011;5107;48.850;8.924;2023-12-07T15:15:34;5.87;;;4.00;;
10134;SDS011;5107;48.850;8.924;2023-12-07T15:18:00;7.50;;;4.40;;
10134;SDS011;5107;48.850;8.924;2023-12-07T15:20:25;8.97;;;4.97;;
10134;SDS011;5107;48.850;8.924;2023-12-07T15:22:51;7.00;;;5.07;;
10134;SDS011;5107;48.850;8.924;2023-12-07T15:25:16;7.80;;;5.60;;
10134;SDS011;5107;48.850;8.924;2023-12-07T15:27:41;10.30;;;5.10;;
10134;SDS011;5107;48.850;8.924;2023-12-07T15:30:07;6.20;;;4.47;;
10134;SDS011;5107;48.850;8.924;2023-12-07T15:32:35;7.90;;;5.07;;
10134;SDS011;5107;48.850;8.924;2023-12-07T15:35:00;5.80;;;3.67;;
10134;SDS011;5107;48.850;8.924;2023-12-07T15:37:25;6.37;;;4.13;;
10134;SDS011;5107;48.850;8.924;2023-12-07T15:39:51;9.80;;;6.57;;
10134;SDS011;5107;48.850;8.924;2023-12-07T15:42:16;7.80;;;5.83;;
10134;SDS011;5107;48.850;8.924;2023-12-07T15:44:41;7.73;;;5.30;;
10134;SDS011;5107;48.850;8.924;2023-12-07T15:47:07;24.93;;;13.93;;
10134;SDS011;5107;48.850;8.924;2023-12-07T15:49:33;7.20;;;5.20;;
10134;SDS011;5107;48.850;8.924;2023-12-07T15:51:58;5.93;;;3.47;;
10134;SDS011;5107;48.850;8.924;2023-12-07T15:54:23;3.57;;;2.90;;
10134;SDS011;5107;48.850;8.924;2023-12-07T15:56:49;4.13;;;2.60;;
10134;SDS011;5107;48.850;8.924;2023-12-07T15:59:15;3.50;;;3.13;;
10134;SDS011;5107;48.850;8.924;2023-12-07T16:01:40;5.43;;;3.23;;
10134;SDS011;5107;48.850;8.924;2023-12-07T16:04:05;5.00;;;3.83;;
10134;SDS011;5107;48.850;8.924;2023-12-07T16:06:30;5.23;;;3.67;;
10134;SDS011;5107;48.850;8.924;2023-12-07T16:08:56;4.33;;;3.50;;
10134;SDS011;5107;48.850;8.924;2023-12-07T16:11:21;4.93;;;3.77;;
10134;SDS011;5107;48.850;8.924;2023-12-07T16:13:47;5.43;;;4.03;;
10134;SDS011;5107;48.850;8.924;2023-12-07T16:16:12;4.83;;;3.13;;
10134;SDS011;5107;48.850;8.924;2023-12-07T16:18:37;3.83;;;2.67;;
10134;SDS011;5107;48.850;8.924;2023-12-07T16:21:03;5.77;;;2.60;;
10134;SDS011;5107;48.850;8.924;2023-12-07T16:23:28;6.10;;;2.90;;
10134;SDS011;5107;48.850;8.924;2023-12-07T16:25:55;3.23;;;2.50;;
10134;SDS011;5107;48.850;8.924;2023-12-07T16:28:20;3.73;;;2.60;;
10134;SDS011;5107;48.850;8.924;2023-12-07T16:30:45;2.60;;;2.23;;
10134;SDS011;5107;48.850;8.924;2023-12-07T16:33:10;3.23;;;2.60;;
10134;SDS011;5107;48.850;8.924;2023-12-07T16:35:36;3.77;;;2.63;;
10134;SDS011;5107;48.850;8.924;2023-12-07T16:38:01;3.90;;;2.60;;
10134;SDS011;5107;48.850;8.924;2023-12-07T16:40:26;4.97;;;3.40;;
10134;SDS011;5107;48.850;8.924;2023-12-07T16:42:52;6.23;;;3.50;;
10134;SDS011;5107;48.850;8.924;2023-12-07T16:45:18;6.57;;;4.27;;
10134;SDS011;5107;48.850;8.924;2023-12-07T16:47:44;8.63;;;5.57;;
10134;SDS011;5107;48.850;8.924;2023-12-07T16:50:12;4.50;;;3.90;;
10134;SDS011;5107;48.850;8.924;2023-12-07T16:52:38;5.13;;;3.77;;
10134;SDS011;5107;48.850;8.924;2023-12-07T16:55:03;4.30;;;3.60;;
10134;SDS011;5107;48.850;8.924;2023-12-07T16:57:31;4.33;;;3.40;;
10134;SDS011;5107;48.850;8.924;2023-12-07T16:59:56;5.33;;;3.73;;
10134;SDS011;5107;48.850;8.924;2023-12-07T17:02:23;6.40;;;3.67;;
10134;SDS011;5107;48.850;8.924;2023-12-07T17:04:50;7.53;;;4.53;;
10134;SDS011;5107;48.850;8.924;2023-12-07T17:07:16;5.80;;;4.40;;
10134;SDS011;5107;48.850;8.924;2023-12-07T17:09:42;5.80;;;3.70;;
10134;SDS011;5107;48.850;8.924;2023-12-07T17:12:07;6.37;;;4.00;;
10134;SDS011;5107;48.850;8.924;2023-12-07T17:14:33;4.90;;;4.03;;
10134;SDS011;5107;48.850;8.924;2023-12-07T17:16:58;7.93;;;5.83;;
10134;SDS011;5107;48.850;8.924;2023-12-07T17:19:23;12.87;;;6.83;;
10134;SDS011;5107;48.850;8.924;2023-12-07T17:21:48;6.80;;;4.93;;
10134;SDS011;5107;48.850;8.924;2023-12-07T17:24:15;8.27;;;5.40;;
10134;SDS011;5107;48.850;8.924;2023-12-07T17:26:43;6.30;;;4.67;;
10134;SDS011;5107;48.850;8.924;2023-12-07T17:29:08;5.43;;;4.10;;
10134;SDS011;5107;48.850;8.924;2023-12-07T17:31:34;9.23;;;5.60;;
10134;SDS011;5107;48.850;8.924;2023-12-07T17:33:59;5.07;;;4.33;;
10134;SDS011;5107;48.850;8.924;2023-12-07T17:36:25;5.67;;;3.90;;
10134;SDS011;5107;48.850;8.924;2023-12-07T17:38:50;9.77;;;5.70;;
10134;SDS011;5107;48.850;8.924;2023-12-07T17:41:16;9.57;;;5.50;;
10134;SDS011;5107;48.850;8.924;2023-12-07T17:43:41;7.80;;;5.50;;
10134;SDS011;5107;48.850;8.924;2023-12-07T17:46:07;5.20;;;4.27;;
10134;SDS011;5107;48.850;8.924;2023-12-07T17:48:32;10.83;;;5.63;;
10134;SDS011;5107;48.850;8.924;2023-12-07T17:50:57;8.63;;;6.33;;
10134;SDS011;5107;48.850;8.924;2023-12-07T17:53:23;6.70;;;5.00;;
10134;SDS011;5107;48.850;8.924;2023-12-07T17:55:48;8.03;;;5.60;;
10134;SDS011;5107;48.850;8.924;2023-12-07T17:58:13;8.90;;;5.00;;
10134;SDS011;5107;48.850;8.924;2023-12-07T18:00:39;8.63;;;5.37;;
10134;SDS011;5107;48.850;8.924;2023-12-07T18:03:04;8.43;;;5.37;;
10134;SDS011;5107;48.850;8.924;2023-12-07T18:05:29;6.33;;;4.83;;
10134;SDS011;5107;48.850;8.924;2023-12-07T18:07:55;6.37;;;4.87;;
10134;SDS011;5107;48.850;8.924;2023-12-07T18:10:20;11.53;;;8.67;;
10134;SDS011;5107;48.850;8.924;2023-12-07T18:12:45;13.73;;;8.30;;
10134;SDS011;5107;48.850;8.924;2023-12-07T18:15:11;12.07;;;7.63;;
10134;SDS011;5107;48.850;8.924;2023-12-07T18:17:37;12.10;;;7.67;;
10134;SDS011;5107;48.850;8.924;2023-12-07T18:20:02;11.20;;;8.20;;
10134;SDS011;5107;48.850;8.924;2023-12-07T18:22:28;16.50;;;11.77;;
10134;SDS011;5107;48.850;8.924;2023-12-07T18:24:53;8.97;;;5.73;;
10134;SDS011;5107;48.850;8.924;2023-12-07T18:27:19;10.23;;;7.40;;
10134;SDS011;5107;48.850;8.924;2023-12-07T18:29:44;14.07;;;8.47;;
10134;SDS011;5107;48.850;8.924;2023-12-07T18:32:10;17.43;;;11.77;;
10134;SDS011;5107;48.850;8.924;2023-12-07T18:34:37;32.30;;;20.33;;
10134;SDS011;5107;48.850;8.924;2023-12-07T18:37:05;14.50;;;9.07;;
10134;SDS011;5107;48.850;8.924;2023-12-07T18:39:30;17.70;;;11.20;;
10134;SDS011;5107;48.850;8.924;2023-12-07T18:41:55;11.63;;;6.87;;
10134;SDS011;5107;48.850;8.924;2023-12-07T18:44:21;9.37;;;6.13;;
10134;SDS011;5107;48.850;8.924;2023-12-07T18:46:46;9.63;;;6.07;;
10134;SDS011;5107;48.850;8.924;2023-12-07T18:49:11;9.67;;;6.57;;
10134;SDS011;5107;48.850;8.924;2023-12-07T18:51:38;10.53;;;6.47;;
10134;SDS011;5107;48.850;8.924;2023-12-07T18:54:03;11.03;;;7.23;;
10134;SDS011;5107;48.850;8.924;2023-12-07T18:56:29;16.83;;;9.10;;
10134;SDS011;5107;48.850;8.924;2023-12-07T18:58:54;13.90;;;8.23;;
10134;SDS011;5107;48.850;8.924;2023-12-07T19:01:27;13.87;;;8.00;;
10134;SDS011;5107;48.850;8.924;2023-12-07T19:03:54;13.73;;;7.50;;
10134;SDS011;5107;48.850;8.924;2023-12-07T19:06:20;9.47;;;7.23;;
10134;SDS011;5107;48.850;8.924;2023-12-07T19:08:45;8.83;;;7.03;;
10134;SDS011;5107;48.850;8.924;2023-12-07T19:11:11;12.97;;;7.43;;
10134;SDS011;5107;48.850;8.924;2023-12-07T19:13:36;11.33;;;8.80;;
10134;SDS011;5107;48.850;8.924;2023-12-07T19:16:01;12.90;;;9.07;;
10134;SDS011;5107;48.850;8.924;2023-12-07T19:18:27;15.40;;;10.83;;
10134;SDS011;5107;48.850;8.924;2023-12-07T19:20:54;14.20;;;9.60;;
10134;SDS011;5107;48.850;8.924;2023-12-07T19:23:21;13.20;;;7.90;;
10134;SDS011;5107;48.850;8.924;2023-12-07T19:25:46;16.13;;;8.80;;
10134;SDS011;5107;48.850;8.924;2023-12-07T19:28:12;17.00;;;9.93;;
10134;SDS011;5107;48.850;8.924;2023-12-07T19:30:37;12.47;;;7.73;;
10134;SDS011;5107;48.850;8.924;2023-12-07T19:33:02;14.40;;;8.70;;
10134;SDS011;5107;48.850;8.924;2023-12-07T19:35:28;13.53;;;7.90;;
10134;SDS011;5107;48.850;8.924;2023-12-07T19:37:54;15.33;;;8.40;;
10134;SDS011;5107;48.850;8.924;2023-12-07T19:40:20;15.17;;;8.90;;
10134;SDS011;5107;48.850;8.924;2023-12-07T19:42:45;14.30;;;9.20;;
10134;SDS011;5107;48.850;8.924;2023-12-07T19:45:10;12.90;;;8.83;;
10134;SDS011;5107;48.850;8.924;2023-12-07T19:47:35;11.73;;;8.40;;
10134;SDS011;5107;48.850;8.924;2023-12-07T19:50:01;13.50;;;8.73;;
10134;SDS011;5107;48.850;8.924;2023-12-07T19:52:26;19.47;;;11.63;;
10134;SDS011;5107;48.850;8.924;2023-12-07T19:54:52;14.83;;;10.33;;
10134;SDS011;5107;48.850;8.924;2023-12-07T19:57:17;21.07;;;12.97;;
10134;SDS011;5107;48.850;8.924;2023-12-07T19:59:43;16.63;;;10.47;;
10134;SDS011;5107;48.850;8.924;2023-12-07T20:02:08;18.37;;;10.90;;
10134;SDS011;5107;48.850;8.924;2023-12-07T20:04:34;13.07;;;8.87;;
10134;SDS011;5107;48.850;8.924;2023-12-07T20:07:00;16.80;;;9.07;;
10134;SDS011;5107;48.850;8.924;2023-12-07T20:09:26;12.57;;;8.17;;
10134;SDS011;5107;48.850;8.924;2023-12-07T20:11:52;15.33;;;8.77;;
10134;SDS011;5107;48.850;8.924;2023-12-07T20:14:17;17.50;;;9.77;;
10134;SDS011;5107;48.850;8.924;2023-12-07T20:16:43;12.47;;;8.57;;
10134;SDS011;5107;48.850;8.924;2023-12-07T20:19:08;14.03;;;8.60;;
10134;SDS011;5107;48.850;8.924;2023-12-07T20:21:34;12.07;;;7.53;;
10134;SDS011;5107;48.850;8.924;2023-12-07T20:24:06;11.20;;;7.23;;
10134;SDS011;5107;48.850;8.924;2023-12-07T20:26:31;10.23;;;7.20;;
10134;SDS011;5107;48.850;8.924;2023-12-07T20:28:56;14.47;;;9.40;;
10134;SDS011;5107;48.850;8.924;2023-12-07T20:31:22;12.63;;;8.00;;
10134;SDS011;5107;48.850;8.924;2023-12-07T20:33:47;11.07;;;8.03;;
10134;SDS011;5107;48.850;8.924;2023-12-07T20:36:13;9.73;;;6.70;;
10134;SDS011;5107;48.850;8.924;2023-12-07T20:38:39;9.80;;;7.23;;
10134;SDS011;5107;48.850;8.924;2023-12-07T20:41:04;10.97;;;7.47;;
10134;SDS011;5107;48.850;8.924;2023-12-07T20:43:29;12.17;;;8.70;;
10134;SDS011;5107;48.850;8.924;2023-12-07T20:45:56;20.77;;;11.60;;
10134;SDS011;5107;48.850;8.924;2023-12-07T20:48:22;15.00;;;9.00;;
10134;SDS011;5107;48.850;8.924;2023-12-07T20:50:47;12.03;;;7.33;;
10134;SDS011;5107;48.850;8.924;2023-12-07T20:53:13;9.40;;;6.67;;
10134;SDS011;5107;48.850;8.924;2023-12-07T20:55:40;12.23;;;6.97;;
10134;SDS011;5107;48.850;8.924;2023-12-07T20:58:05;12.20;;;7.07;;
10134;SDS011;5107;48.850;8.924;2023-12-07T21:00:31;10.47;;;6.60;;
10134;SDS011;5107;48.850;8.924;2023-12-07T21:02:56;10.83;;;7.60;;
10134;SDS011;5107;48.850;8.924;2023-12-07T21:05:22;12.30;;;8.23;;
10134;SDS011;5107;48.850;8.924;2023-12-07T21:07:48;13.80;;;8.27;;
10134;SDS011;5107;48.850;8.924;2023-12-07T21:10:13;11.60;;;7.90;;
10134;SDS011;5107;48.850;8.924;2023-12-07T21:12:38;10.90;;;7.63;;
10134;SDS011;5107;48.850;8.924;2023-12-07T21:15:04;10.33;;;7.37;;
10134;SDS011;5107;48.850;8.924;2023-12-07T21:17:30;12.53;;;8.07;;
10134;SDS011;5107;48.850;8.924;2023-12-07T21:19:55;15.87;;;9.20;;
10134;SDS011;5107;48.850;8.924;2023-12-07T21:22:21;11.30;;;8.10;;
10134;SDS011;5107;48.850;8.924;2023-12-07T21:24:47;12.17;;;8.13;;
10134;SDS011;5107;48.850;8.924;2023-12-07T21:27:14;11.33;;;7.57;;
10134;SDS011;5107;48.850;8.924;2023-12-07T21:29:42;10.00;;;6.63;;
10134;SDS011;5107;48.850;8.924;2023-12-07T21:32:07;13.93;;;7.90;;
10134;SDS011;5107;48.850;8.924;2023-12-07T21:34:32;11.33;;;8.70;;
10134;SDS011;5107;48.850;8.924;2023-12-07T21:36:58;10.63;;;7.80;;
10134;SDS011;5107;48.850;8.924;2023-12-07T21:39:23;11.37;;;7.67;;
10134;SDS011;5107;48.850;8.924;2023-12-07T21:41:48;11.23;;;7.57;;
10134;SDS011;5107;48.850;8.924;2023-12-07T21:44:14;10.93;;;7.37;;